createdAt,value
2018-12-20T00:01:46.633Z,7.00
2018-12-20T00:04:15.175Z,6.90
2018-12-20T00:06:44.084Z,7.00
2018-12-20T00:09:12.704Z,6.90
2018-12-20T00:11:41.410Z,6.80
2018-12-20T00:14:10.045Z,6.80
2018-12-20T00:16:38.639Z,6.80
2018-12-20T00:19:07.347Z,6.80
2018-12-20T00:21:36.060Z,6.70
2018-12-20T00:24:04.758Z,6.80
2018-12-20T00:26:33.397Z,6.80
2018-12-20T00:29:01.964Z,6.80
2018-12-20T00:31:30.600Z,6.80
2018-12-20T00:33:59.283Z,6.80
2018-12-20T00:36:27.902Z,6.90
2018-12-20T00:38:56.663Z,6.90
2018-12-20T00:41:25.314Z,6.90
2018-12-20T00:43:53.931Z,6.90
2018-12-20T00:46:22.584Z,6.90
2018-12-20T00:48:51.116Z,6.90
2018-12-20T00:51:19.802Z,7.00
2018-12-20T00:53:48.457Z,7.00
2018-12-20T00:56:17.187Z,7.00
2018-12-20T00:58:45.875Z,7.00
2018-12-20T01:01:14.554Z,7.00
2018-12-20T01:03:43.244Z,7.00
2018-12-20T01:06:11.894Z,7.00
2018-12-20T01:08:40.648Z,7.00
2018-12-20T01:11:09.328Z,7.10
2018-12-20T01:13:37.992Z,7.10
2018-12-20T01:16:06.700Z,7.10
2018-12-20T01:18:35.316Z,7.20
2018-12-20T01:21:04.101Z,7.10
2018-12-20T01:23:32.739Z,7.10
2018-12-20T01:26:01.377Z,7.10
2018-12-20T01:28:29.950Z,7.10
2018-12-20T01:30:58.581Z,7.20
2018-12-20T01:33:27.174Z,7.20
2018-12-20T01:35:55.874Z,7.20
2018-12-20T01:38:24.453Z,7.20
2018-12-20T01:40:53.023Z,7.30
2018-12-20T01:43:21.821Z,7.30
2018-12-20T01:45:50.634Z,7.30
2018-12-20T01:48:19.410Z,7.20
2018-12-20T01:50:48.126Z,7.20
2018-12-20T01:53:16.687Z,7.20
2018-12-20T01:55:45.321Z,7.20
2018-12-20T01:58:13.925Z,7.20
2018-12-20T02:00:42.574Z,7.20
2018-12-20T02:03:11.114Z,7.20
2018-12-20T02:05:39.804Z,7.20
2018-12-20T02:08:08.602Z,7.20
2018-12-20T02:10:37.212Z,7.10
2018-12-20T02:13:05.774Z,7.10
2018-12-20T02:15:34.652Z,7.00
2018-12-20T02:18:03.324Z,7.10
2018-12-20T02:20:32.023Z,7.10
2018-12-20T02:23:01.313Z,7.10
2018-12-20T02:25:30.195Z,7.10
2018-12-20T02:27:58.858Z,7.10
2018-12-20T02:30:27.613Z,7.00
2018-12-20T02:32:56.294Z,7.00
2018-12-20T02:35:24.803Z,7.00
2018-12-20T02:37:53.526Z,7.00
2018-12-20T02:40:22.278Z,7.00
2018-12-20T02:42:50.916Z,7.10
2018-12-20T02:45:19.450Z,7.00
2018-12-20T02:47:48.105Z,7.00
2018-12-20T02:50:16.723Z,7.10
2018-12-20T02:52:45.363Z,7.10
2018-12-20T02:55:14.026Z,7.10
2018-12-20T02:57:42.573Z,7.10
2018-12-20T03:00:11.258Z,7.10
2018-12-20T03:02:39.824Z,7.20
2018-12-20T03:05:08.468Z,7.20
2018-12-20T03:07:37.060Z,7.10
2018-12-20T03:10:05.976Z,7.10
2018-12-20T03:12:34.602Z,7.10
2018-12-20T03:15:04.318Z,7.10
2018-12-20T03:17:33.966Z,7.10
2018-12-20T03:20:02.718Z,7.10
2018-12-20T03:22:31.365Z,7.10
2018-12-20T03:25:00.223Z,7.10
2018-12-20T03:27:28.855Z,7.00
2018-12-20T03:29:57.654Z,7.10
2018-12-20T03:32:26.277Z,7.00
2018-12-20T03:34:54.846Z,7.00
2018-12-20T03:37:23.452Z,7.00
2018-12-20T03:39:52.066Z,7.10
2018-12-20T03:42:20.730Z,7.00
2018-12-20T03:44:49.438Z,7.10
2018-12-20T03:47:18.114Z,7.10
2018-12-20T03:49:46.976Z,7.10
2018-12-20T03:52:15.767Z,7.10
2018-12-20T03:54:44.490Z,7.10
2018-12-20T03:57:13.106Z,7.10
2018-12-20T03:59:41.946Z,7.00
2018-12-20T04:02:10.589Z,7.00
2018-12-20T04:04:39.151Z,7.00
2018-12-20T04:07:07.709Z,7.00
2018-12-20T04:09:36.324Z,7.00
2018-12-20T04:12:04.994Z,7.00
2018-12-20T04:14:33.927Z,7.00
2018-12-20T04:17:02.742Z,7.00
2018-12-20T04:19:31.721Z,7.10
2018-12-20T04:22:00.550Z,7.10
2018-12-20T04:24:29.264Z,7.10
2018-12-20T04:26:57.915Z,7.10
2018-12-20T04:29:26.493Z,7.10
2018-12-20T04:31:55.129Z,7.10
2018-12-20T04:34:23.690Z,7.20
2018-12-20T04:36:52.340Z,7.10
2018-12-20T04:39:21.269Z,7.20
2018-12-20T04:41:49.959Z,7.20
2018-12-20T04:44:18.727Z,7.20
2018-12-20T04:46:47.540Z,7.10
2018-12-20T04:49:16.487Z,7.20
2018-12-20T04:51:45.169Z,7.20
2018-12-20T04:54:13.699Z,7.10
2018-12-20T04:56:42.462Z,7.10
2018-12-20T04:59:11.202Z,7.10
2018-12-20T05:01:39.871Z,7.10
2018-12-20T05:04:08.486Z,7.10
2018-12-20T05:06:37.131Z,7.00
2018-12-20T05:09:07.271Z,6.90
2018-12-20T05:11:36.004Z,6.90
2018-12-20T05:14:05.012Z,6.80
2018-12-20T05:16:33.641Z,6.80
2018-12-20T05:19:02.249Z,6.80
2018-12-20T05:21:30.855Z,6.80
2018-12-20T05:23:59.481Z,6.70
2018-12-20T05:26:28.061Z,6.70
2018-12-20T05:28:56.850Z,6.70
2018-12-20T05:31:25.470Z,6.60
2018-12-20T05:33:53.995Z,6.60
2018-12-20T05:36:24.333Z,6.60
2018-12-20T05:38:53.096Z,6.60
2018-12-20T05:41:21.652Z,6.70
2018-12-20T05:43:50.265Z,6.60
2018-12-20T05:46:18.920Z,6.60
2018-12-20T05:48:47.622Z,6.60
2018-12-20T05:51:16.276Z,6.60
2018-12-20T05:53:44.944Z,6.60
2018-12-20T05:56:13.498Z,6.60
2018-12-20T05:58:42.343Z,6.60
2018-12-20T06:01:11.391Z,6.60
2018-12-20T06:03:40.005Z,6.50
2018-12-20T06:06:08.587Z,6.50
2018-12-20T06:08:37.240Z,6.50
2018-12-20T06:11:05.786Z,6.50
2018-12-20T06:13:34.363Z,6.50
2018-12-20T06:16:03.035Z,6.50
2018-12-20T06:18:31.880Z,6.50
2018-12-20T06:21:00.665Z,6.50
2018-12-20T06:23:29.305Z,6.50
2018-12-20T06:25:57.880Z,6.50
2018-12-20T06:28:26.452Z,6.50
2018-12-20T06:30:55.154Z,6.40
2018-12-20T06:33:23.753Z,6.40
2018-12-20T06:35:52.461Z,6.40
2018-12-20T06:38:21.045Z,6.40
2018-12-20T06:40:49.680Z,6.40
2018-12-20T06:43:18.203Z,6.40
2018-12-20T06:45:46.767Z,6.30
2018-12-20T06:48:15.323Z,6.30
2018-12-20T06:50:43.865Z,6.30
2018-12-20T06:53:12.416Z,6.20
2018-12-20T06:55:41.035Z,6.20
2018-12-20T06:58:09.661Z,6.30
2018-12-20T07:00:38.267Z,6.30
2018-12-20T07:03:06.871Z,6.20
2018-12-20T07:05:35.393Z,6.20
2018-12-20T07:08:03.980Z,6.20
2018-12-20T07:10:32.536Z,6.20
2018-12-20T07:13:01.224Z,6.20
2018-12-20T07:15:29.885Z,6.20
2018-12-20T07:17:58.524Z,6.20
2018-12-20T07:20:27.101Z,6.20
2018-12-20T07:22:55.715Z,6.20
2018-12-20T07:25:24.356Z,6.30
2018-12-20T07:27:52.944Z,6.30
2018-12-20T07:30:21.500Z,6.30
2018-12-20T07:32:50.073Z,6.30
2018-12-20T07:35:18.632Z,6.30
2018-12-20T07:37:47.349Z,6.30
2018-12-20T07:40:16.046Z,6.40
2018-12-20T07:42:44.609Z,6.30
2018-12-20T08:00:39.039Z,6.30
2018-12-20T08:07:29.850Z,6.40
2018-12-20T08:10:23.309Z,6.40
2018-12-20T08:12:51.906Z,6.50
2018-12-20T08:15:20.456Z,6.60
2018-12-20T08:17:49.198Z,6.50
2018-12-20T08:20:17.845Z,6.50
2018-12-20T08:22:46.432Z,6.60
2018-12-20T08:25:15.204Z,6.50
2018-12-20T08:27:43.772Z,6.50
2018-12-20T08:30:12.341Z,6.60
2018-12-20T08:32:41.006Z,6.60
2018-12-20T08:35:09.724Z,6.60
2018-12-20T08:37:38.347Z,6.70
2018-12-20T08:40:08.557Z,6.60
2018-12-20T08:42:37.123Z,6.60
2018-12-20T08:45:06.355Z,6.60
2018-12-20T08:47:35.267Z,6.50
2018-12-20T08:50:04.408Z,6.50
2018-12-20T08:52:33.045Z,6.60
2018-12-20T08:55:01.643Z,6.60
2018-12-20T08:57:30.416Z,6.60
2018-12-20T08:59:58.980Z,6.60
2018-12-20T09:02:27.625Z,6.60
2018-12-20T09:04:56.218Z,6.60
2018-12-20T09:07:24.858Z,6.60
2018-12-20T09:09:53.553Z,6.60
2018-12-20T09:12:22.339Z,6.70
2018-12-20T09:14:51.057Z,6.60
2018-12-20T09:17:19.812Z,6.70
2018-12-20T09:19:48.349Z,6.70
2018-12-20T09:22:16.927Z,6.60
2018-12-20T09:24:45.471Z,6.60
2018-12-20T09:27:14.108Z,6.60
2018-12-20T09:29:42.657Z,6.60
2018-12-20T09:32:11.197Z,6.60
2018-12-20T09:34:39.755Z,6.70
2018-12-20T09:37:08.293Z,6.70
2018-12-20T09:39:36.868Z,6.70
2018-12-20T09:42:05.419Z,6.80
2018-12-20T09:44:33.988Z,6.80
2018-12-20T09:47:11.899Z,6.80
2018-12-20T09:49:38.367Z,6.80
2018-12-20T09:52:06.897Z,6.80
2018-12-20T09:54:35.460Z,6.80
2018-12-20T09:57:04.113Z,6.80
2018-12-20T09:59:32.692Z,6.80
2018-12-20T10:02:01.212Z,6.80
2018-12-20T10:04:29.788Z,6.80
2018-12-20T10:06:58.347Z,6.70
2018-12-20T10:09:26.890Z,6.70
2018-12-20T10:11:55.477Z,6.70
2018-12-20T10:14:24.117Z,6.70
2018-12-20T10:16:52.716Z,6.70
2018-12-20T10:19:21.352Z,6.70
2018-12-20T10:21:49.888Z,6.80
2018-12-20T10:24:18.457Z,6.70
2018-12-20T10:26:47.016Z,6.70
2018-12-20T10:29:15.578Z,6.70
2018-12-20T10:31:44.150Z,6.80
2018-12-20T10:34:12.704Z,6.80
2018-12-20T10:36:41.251Z,6.80
2018-12-20T10:39:09.814Z,6.80
2018-12-20T10:41:38.352Z,6.80
2018-12-20T10:44:06.887Z,6.90
2018-12-20T10:46:35.452Z,6.90
2018-12-20T10:49:04.118Z,6.90
2018-12-20T10:51:32.667Z,6.90
2018-12-20T10:54:01.201Z,6.90
2018-12-20T10:56:29.783Z,7.00
2018-12-20T10:58:58.340Z,6.90
2018-12-20T11:01:32.906Z,7.00
2018-12-20T11:04:06.796Z,7.00
2018-12-20T11:06:40.735Z,7.00
2018-12-20T11:09:14.451Z,6.90
2018-12-20T11:11:48.512Z,7.00
2018-12-20T11:14:17.048Z,7.00
2018-12-20T11:16:45.584Z,7.10
2018-12-20T11:19:14.139Z,7.10
2018-12-20T11:21:42.662Z,7.20
2018-12-20T11:24:11.215Z,7.20
2018-12-20T11:26:39.753Z,7.20
2018-12-20T11:29:08.304Z,7.30
2018-12-20T11:31:36.852Z,7.30
2018-12-20T11:34:05.411Z,7.30
2018-12-20T11:36:33.947Z,7.40
2018-12-20T11:39:08.304Z,7.50
2018-12-20T11:41:33.699Z,7.50
2018-12-20T11:44:02.291Z,7.50
2018-12-20T11:46:30.816Z,7.60
2018-12-20T11:48:59.371Z,7.70
2018-12-20T11:51:27.984Z,7.70
2018-12-20T11:53:56.562Z,7.80
2018-12-20T11:56:25.129Z,7.90
2018-12-20T11:58:53.673Z,7.90
2018-12-20T12:01:22.196Z,7.90
2018-12-20T12:03:57.380Z,7.80
2018-12-20T12:06:21.310Z,7.80
2018-12-20T12:08:49.860Z,7.80
2018-12-20T12:11:18.383Z,7.90
2018-12-20T12:13:46.941Z,7.80
2018-12-20T12:16:15.483Z,7.80
2018-12-20T12:18:43.999Z,7.80
2018-12-20T12:21:12.564Z,7.90
2018-12-20T12:23:41.242Z,7.90
2018-12-20T12:26:09.812Z,7.90
2018-12-20T12:28:38.331Z,7.90
2018-12-20T12:31:06.888Z,7.90
2018-12-20T12:33:35.425Z,7.90
2018-12-20T12:36:04.055Z,7.90
2018-12-20T12:38:32.568Z,7.90
2018-12-20T12:41:01.206Z,7.90
2018-12-20T12:43:29.787Z,7.90
2018-12-20T12:45:58.339Z,8.00
2018-12-20T12:48:26.867Z,8.00
2018-12-20T12:50:55.412Z,8.20
2018-12-20T12:53:23.958Z,8.20
2018-12-20T12:55:52.524Z,8.20
2018-12-20T12:58:21.060Z,8.20
2018-12-20T13:00:49.616Z,8.20
2018-12-20T13:03:18.177Z,8.20
2018-12-20T13:05:46.717Z,8.20
2018-12-20T13:08:15.260Z,8.20
2018-12-20T13:10:43.915Z,8.10
2018-12-20T13:13:12.876Z,8.00
2018-12-20T13:15:41.431Z,8.00
2018-12-20T13:18:13.823Z,8.00
2018-12-20T13:20:40.555Z,8.00
2018-12-20T13:23:09.100Z,8.00
2018-12-20T13:25:37.662Z,8.00
2018-12-20T13:28:06.209Z,7.90
2018-12-20T13:30:34.755Z,8.00
2018-12-20T13:33:03.281Z,8.00
2018-12-20T13:35:31.831Z,8.00
2018-12-20T13:38:00.376Z,8.00
2018-12-20T13:40:28.912Z,8.00
2018-12-20T13:42:57.489Z,8.00
2018-12-20T13:45:26.029Z,8.00
2018-12-20T13:47:54.584Z,8.00
2018-12-20T13:50:23.127Z,8.00
2018-12-20T13:52:51.696Z,8.00
2018-12-20T13:55:20.343Z,8.00
2018-12-20T13:57:48.905Z,8.00
2018-12-20T14:00:17.454Z,8.00
2018-12-20T14:02:46.019Z,8.00
2018-12-20T14:05:14.552Z,8.00
2018-12-20T14:07:43.244Z,8.00
2018-12-20T14:10:11.770Z,8.00
2018-12-20T14:12:42.652Z,8.00
2018-12-20T14:15:11.361Z,8.00
2018-12-20T14:17:41.143Z,8.00
2018-12-20T14:20:09.697Z,8.00
2018-12-20T14:22:38.352Z,8.10
2018-12-20T14:25:07.124Z,8.00
2018-12-20T14:27:35.737Z,7.90
2018-12-20T14:30:05.267Z,7.80
2018-12-20T14:32:33.881Z,7.70
2018-12-20T14:35:02.431Z,7.60
2018-12-20T14:37:31.037Z,7.50
2018-12-20T14:39:59.640Z,7.40
2018-12-20T14:42:28.227Z,7.30
2018-12-20T14:44:56.829Z,7.30
2018-12-20T14:47:25.436Z,7.20
2018-12-20T14:49:54.018Z,7.20
2018-12-20T14:52:22.669Z,7.20
2018-12-20T14:54:51.225Z,7.10
2018-12-20T14:57:19.905Z,7.10
2018-12-20T14:59:48.574Z,7.10
2018-12-20T15:02:17.132Z,7.00
2018-12-20T15:04:45.680Z,7.00
2018-12-20T15:07:14.216Z,6.90
2018-12-20T15:09:42.815Z,6.90
2018-12-20T15:12:11.347Z,6.90
2018-12-20T15:14:40.160Z,6.90
2018-12-20T15:17:08.804Z,6.80
2018-12-20T15:19:37.427Z,6.90
2018-12-20T15:22:07.048Z,6.80
2018-12-20T15:24:35.682Z,6.80
2018-12-20T15:27:04.229Z,6.80
2018-12-20T15:29:32.833Z,6.90
2018-12-20T15:32:01.401Z,6.80
2018-12-20T15:34:30.044Z,6.80
2018-12-20T15:36:58.576Z,6.80
2018-12-20T15:39:27.141Z,6.80
2018-12-20T15:41:55.696Z,6.80
2018-12-20T15:44:24.281Z,6.90
2018-12-20T15:46:53.021Z,6.90
2018-12-20T15:49:21.594Z,7.00
2018-12-20T15:51:51.581Z,7.00
2018-12-20T15:54:20.237Z,7.00
2018-12-20T15:56:48.816Z,7.00
2018-12-20T15:59:17.448Z,7.00
2018-12-20T16:01:46.224Z,7.00
2018-12-20T16:04:14.866Z,7.10
2018-12-20T16:06:43.419Z,7.10
2018-12-20T16:09:12.080Z,7.10
2018-12-20T16:11:40.655Z,7.10
2018-12-20T16:14:09.256Z,7.10
2018-12-20T16:16:37.820Z,7.20
2018-12-20T16:19:06.460Z,7.20
2018-12-20T16:21:35.044Z,7.20
2018-12-20T16:24:03.689Z,7.20
2018-12-20T16:26:32.352Z,7.20
2018-12-20T16:29:00.967Z,7.20
2018-12-20T16:31:29.665Z,7.20
2018-12-20T16:33:58.314Z,7.30
2018-12-20T16:36:27.134Z,7.30
2018-12-20T16:38:55.721Z,7.30
2018-12-20T16:41:24.371Z,7.20
2018-12-20T16:43:52.981Z,7.20
2018-12-20T16:46:21.566Z,7.30
2018-12-20T16:48:50.141Z,7.30
2018-12-20T16:51:18.817Z,7.30
2018-12-20T16:53:47.416Z,7.30
2018-12-20T16:56:16.043Z,7.30
2018-12-20T16:58:44.669Z,7.30
2018-12-20T17:01:14.863Z,7.20
2018-12-20T17:03:43.709Z,7.20
2018-12-20T17:06:12.284Z,7.10
2018-12-20T17:08:48.081Z,7.10
2018-12-20T17:11:11.548Z,7.00
2018-12-20T17:13:40.114Z,7.00
2018-12-20T17:16:08.880Z,7.00
2018-12-20T17:18:37.675Z,6.90
2018-12-20T17:21:06.243Z,6.90
2018-12-20T17:23:35.726Z,6.90
2018-12-20T17:26:04.901Z,6.90
2018-12-20T17:28:33.506Z,6.80
2018-12-20T17:31:02.230Z,6.80
2018-12-20T17:33:30.846Z,6.80
2018-12-20T17:35:59.434Z,6.80
2018-12-20T17:38:28.116Z,6.80
2018-12-20T17:40:57.524Z,6.80
2018-12-20T17:43:26.113Z,6.80
2018-12-20T17:45:54.712Z,6.80
2018-12-20T17:48:29.023Z,6.80
2018-12-20T17:50:54.015Z,6.80
2018-12-20T17:53:22.611Z,6.80
2018-12-20T17:55:51.258Z,6.80
2018-12-20T17:58:19.812Z,6.80
2018-12-20T18:00:48.434Z,6.80
2018-12-20T18:03:17.032Z,6.80
2018-12-20T18:05:45.670Z,6.80
2018-12-20T18:08:14.357Z,6.80
2018-12-20T18:10:42.925Z,6.90
2018-12-20T18:13:11.465Z,6.90
2018-12-20T18:15:40.165Z,6.80
2018-12-20T18:18:09.125Z,6.80
2018-12-20T18:20:37.831Z,6.80
2018-12-20T18:23:06.382Z,6.80
2018-12-20T18:25:34.953Z,6.80
2018-12-20T18:28:03.547Z,6.80
2018-12-20T18:30:32.100Z,6.80
2018-12-20T18:33:00.628Z,6.80
2018-12-20T18:35:29.252Z,6.80
2018-12-20T18:37:57.773Z,6.80
2018-12-20T18:40:26.352Z,6.90
2018-12-20T18:42:54.894Z,6.90
2018-12-20T18:45:23.473Z,6.90
2018-12-20T18:47:52.113Z,6.90
2018-12-20T18:50:20.717Z,6.90
2018-12-20T18:52:49.293Z,6.90
2018-12-20T18:55:19.107Z,6.80
2018-12-20T18:57:47.647Z,6.90
2018-12-20T19:00:16.204Z,6.80
2018-12-20T19:02:44.769Z,6.80
2018-12-20T19:05:13.328Z,6.80
2018-12-20T19:07:41.873Z,6.80
2018-12-20T19:10:10.426Z,6.70
2018-12-20T19:12:40.020Z,6.70
2018-12-20T19:15:09.637Z,6.70
2018-12-20T19:17:38.175Z,6.70
2018-12-20T19:20:15.824Z,6.70
2018-12-20T19:22:39.259Z,6.70
2018-12-20T19:25:08.187Z,6.70
2018-12-20T19:27:36.756Z,6.70
2018-12-20T19:30:07.212Z,6.70
2018-12-20T19:32:35.776Z,6.70
2018-12-20T19:35:04.702Z,6.70
2018-12-20T19:37:33.224Z,6.70
2018-12-20T19:40:05.057Z,6.70
2018-12-20T19:42:33.654Z,6.70
2018-12-20T19:45:02.200Z,6.70
2018-12-20T19:47:30.731Z,6.70
2018-12-20T19:50:04.770Z,6.70
2018-12-20T19:52:29.800Z,6.70
2018-12-20T19:54:58.332Z,6.70
2018-12-20T19:57:26.847Z,6.70
2018-12-20T19:59:55.457Z,6.70
2018-12-20T20:02:23.976Z,6.80
2018-12-20T20:04:52.529Z,6.80
2018-12-20T20:07:21.068Z,6.80
2018-12-20T20:09:49.620Z,6.80
2018-12-20T20:12:18.147Z,6.80
2018-12-20T20:14:46.713Z,6.80
2018-12-20T20:17:15.284Z,6.80
2018-12-20T20:19:43.820Z,6.80
2018-12-20T20:22:12.443Z,6.80
2018-12-20T20:24:40.962Z,6.80
2018-12-20T20:27:09.542Z,6.80
2018-12-20T20:29:38.067Z,6.80
2018-12-20T20:32:06.708Z,6.90
2018-12-20T20:34:35.251Z,6.90
2018-12-20T20:37:03.837Z,6.90
2018-12-20T20:39:32.470Z,6.80
2018-12-20T20:42:01.030Z,6.80
2018-12-20T20:44:29.571Z,6.80
2018-12-20T20:46:58.142Z,6.80
2018-12-20T20:49:26.685Z,6.80
2018-12-20T20:51:55.230Z,6.80
2018-12-20T20:54:23.759Z,6.80
2018-12-20T20:56:52.334Z,6.70
2018-12-20T20:59:20.871Z,6.70
2018-12-20T21:01:49.396Z,6.70
2018-12-20T21:04:17.961Z,6.70
2018-12-20T21:06:47.168Z,6.70
2018-12-20T21:09:16.096Z,6.60
2018-12-20T21:11:44.636Z,6.70
2018-12-20T21:14:13.198Z,6.70
2018-12-20T21:16:41.737Z,6.60
2018-12-20T21:19:10.279Z,6.60
2018-12-20T21:21:38.820Z,6.60
2018-12-20T21:24:07.370Z,6.50
2018-12-20T21:26:35.909Z,6.50
2018-12-20T21:29:04.496Z,6.50
2018-12-20T21:31:33.018Z,6.50
2018-12-20T21:34:01.606Z,6.50
2018-12-20T21:36:30.141Z,6.50
2018-12-20T21:38:58.671Z,6.50
2018-12-20T21:41:27.252Z,6.60
2018-12-20T21:43:55.816Z,6.60
2018-12-20T21:46:24.368Z,6.60
2018-12-20T21:48:53.012Z,6.60
2018-12-20T21:51:21.577Z,6.60
2018-12-20T21:53:54.786Z,6.60
2018-12-20T21:56:21.636Z,6.70
2018-12-20T21:58:50.159Z,6.60
2018-12-20T22:01:18.854Z,6.60
2018-12-20T22:03:47.401Z,6.70
2018-12-20T22:06:15.952Z,6.70
2018-12-20T22:08:44.503Z,6.70
2018-12-20T22:11:13.083Z,6.70
2018-12-20T22:13:41.664Z,6.70
2018-12-20T22:16:10.237Z,6.70
2018-12-20T22:18:38.801Z,6.80
2018-12-20T22:21:07.345Z,6.80
2018-12-20T22:23:35.936Z,6.80
2018-12-20T22:26:04.492Z,6.80
2018-12-20T22:28:33.116Z,6.80
2018-12-20T22:31:01.739Z,6.80
2018-12-20T22:33:30.275Z,6.80
2018-12-20T22:35:58.834Z,6.80
2018-12-20T22:38:28.447Z,6.90
2018-12-20T22:40:57.007Z,6.90
2018-12-20T22:43:25.532Z,7.00
2018-12-20T22:45:54.209Z,7.00
2018-12-20T22:48:22.762Z,7.00
2018-12-20T22:50:55.912Z,7.00
2018-12-20T22:53:21.976Z,7.10
2018-12-20T22:55:50.524Z,7.10
2018-12-20T22:58:19.067Z,7.00
2018-12-20T23:00:55.792Z,7.10
2018-12-20T23:03:24.341Z,7.10
2018-12-20T23:05:52.900Z,7.10
2018-12-20T23:08:21.432Z,7.20
2018-12-20T23:10:49.996Z,7.30
2018-12-20T23:13:18.542Z,7.30
2018-12-20T23:15:47.078Z,7.30
2018-12-20T23:18:15.651Z,7.30
2018-12-20T23:20:44.179Z,7.20
2018-12-20T23:23:12.744Z,7.20
2018-12-20T23:25:41.293Z,7.20
2018-12-20T23:28:09.843Z,7.20
2018-12-20T23:30:38.388Z,7.20
2018-12-20T23:33:06.949Z,7.20
2018-12-20T23:35:35.502Z,7.20
2018-12-20T23:38:04.063Z,7.20
2018-12-20T23:40:32.690Z,7.10
2018-12-20T23:43:01.249Z,7.10
2018-12-20T23:45:29.788Z,7.10
2018-12-20T23:47:58.331Z,7.00
2018-12-20T23:50:27.009Z,7.10
2018-12-20T23:52:55.532Z,7.10
2018-12-20T23:55:24.103Z,7.10
2018-12-20T23:57:52.640Z,7.10
